sensor_id;sensor_type;location;lat;lon;timestamp;temperature;humidity
7934;DHT22;4012;48.896;9.192;2023-02-21T00:01:56;7.30;99.90
7934;DHT22;4012;48.896;9.192;2023-02-21T00:04:40;7.30;99.90
7934;DHT22;4012;48.896;9.192;2023-02-21T00:07:24;7.20;99.90
7934;DHT22;4012;48.896;9.192;2023-02-21T00:10:12;7.20;99.90
7934;DHT22;4012;48.896;9.192;2023-02-21T00:12:57;7.20;99.90
7934;DHT22;4012;48.896;9.192;2023-02-21T00:15:41;7.10;99.90
7934;DHT22;4012;48.896;9.192;2023-02-21T00:18:25;7.10;99.90
7934;DHT22;4012;48.896;9.192;2023-02-21T00:21:09;7.00;99.90
7934;DHT22;4012;48.896;9.192;2023-02-21T00:23:53;7.00;99.90
7934;DHT22;4012;48.896;9.192;2023-02-21T00:26:37;7.00;99.90
7934;DHT22;4012;48.896;9.192;2023-02-21T00:29:21;6.90;99.90
7934;DHT22;4012;48.896;9.192;2023-02-21T00:32:05;6.90;99.90
7934;DHT22;4012;48.896;9.192;2023-02-21T00:34:49;6.80;99.90
7934;DHT22;4012;48.896;9.192;2023-02-21T00:37:34;6.80;99.90
7934;DHT22;4012;48.896;9.192;2023-02-21T00:40:18;6.80;99.90
7934;DHT22;4012;48.896;9.192;2023-02-21T00:43:02;6.80;99.90
7934;DHT22;4012;48.896;9.192;2023-02-21T00:45:46;6.80;99.90
7934;DHT22;4012;48.896;9.192;2023-02-21T00:48:31;6.80;99.90
7934;DHT22;4012;48.896;9.192;2023-02-21T00:51:15;6.70;99.90
7934;DHT22;4012;48.896;9.192;2023-02-21T00:54:00;6.80;99.90
7934;DHT22;4012;48.896;9.192;2023-02-21T00:56:44;6.80;99.90
7934;DHT22;4012;48.896;9.192;2023-02-21T00:59:29;6.80;99.90
7934;DHT22;4012;48.896;9.192;2023-02-21T01:02:13;6.80;99.90
7934;DHT22;4012;48.896;9.192;2023-02-21T01:04:57;6.80;99.90
7934;DHT22;4012;48.896;9.192;2023-02-21T01:07:41;6.80;99.90
7934;DHT22;4012;48.896;9.192;2023-02-21T01:10:25;6.70;99.90
7934;DHT22;4012;48.896;9.192;2023-02-21T01:13:09;6.70;99.90
7934;DHT22;4012;48.896;9.192;2023-02-21T01:15:53;6.70;99.90
7934;DHT22;4012;48.896;9.192;2023-02-21T01:18:37;6.70;99.90
7934;DHT22;4012;48.896;9.192;2023-02-21T01:21:21;6.60;99.90
7934;DHT22;4012;48.896;9.192;2023-02-21T01:24:08;6.60;99.90
7934;DHT22;4012;48.896;9.192;2023-02-21T01:26:52;6.60;99.90
7934;DHT22;4012;48.896;9.192;2023-02-21T01:29:36;6.60;99.90
7934;DHT22;4012;48.896;9.192;2023-02-21T01:32:20;6.60;99.90
7934;DHT22;4012;48.896;9.192;2023-02-21T01:35:04;6.60;99.90
7934;DHT22;4012;48.896;9.192;2023-02-21T01:37:49;6.60;99.90
7934;DHT22;4012;48.896;9.192;2023-02-21T01:40:33;6.50;99.90
7934;DHT22;4012;48.896;9.192;2023-02-21T01:43:20;6.40;99.90
7934;DHT22;4012;48.896;9.192;2023-02-21T01:46:08;6.40;99.90
7934;DHT22;4012;48.896;9.192;2023-02-21T01:48:54;6.40;99.90
7934;DHT22;4012;48.896;9.192;2023-02-21T01:51:40;6.30;99.90
7934;DHT22;4012;48.896;9.192;2023-02-21T01:54:28;6.30;99.90
7934;DHT22;4012;48.896;9.192;2023-02-21T01:57:13;6.30;99.90
7934;DHT22;4012;48.896;9.192;2023-02-21T01:59:58;6.30;99.90
7934;DHT22;4012;48.896;9.192;2023-02-21T02:03:04;6.30;99.90
7934;DHT22;4012;48.896;9.192;2023-02-21T02:05:55;6.30;99.90
7934;DHT22;4012;48.896;9.192;2023-02-21T02:08:39;6.30;99.90
7934;DHT22;4012;48.896;9.192;2023-02-21T02:11:57;6.30;99.90
7934;DHT22;4012;48.896;9.192;2023-02-21T02:15:14;6.30;99.90
7934;DHT22;4012;48.896;9.192;2023-02-21T02:20:57;6.30;99.90
7934;DHT22;4012;48.896;9.192;2023-02-21T02:34:55;6.20;99.90
7934;DHT22;4012;48.896;9.192;2023-02-21T02:46:06;6.20;99.90
7934;DHT22;4012;48.896;9.192;2023-02-21T02:48:49;6.20;99.90
7934;DHT22;4012;48.896;9.192;2023-02-21T02:51:17;6.20;99.90
7934;DHT22;4012;48.896;9.192;2023-02-21T02:53:42;6.10;99.90
7934;DHT22;4012;48.896;9.192;2023-02-21T02:56:12;5.40;99.90
7934;DHT22;4012;48.896;9.192;2023-02-21T03:01:36;5.20;99.90
7934;DHT22;4012;48.896;9.192;2023-02-21T03:12:18;5.00;99.90
7934;DHT22;4012;48.896;9.192;2023-02-21T03:15:04;4.90;99.90
7934;DHT22;4012;48.896;9.192;2023-02-21T03:17:40;4.90;99.90
7934;DHT22;4012;48.896;9.192;2023-02-21T03:20:08;4.90;99.90
7934;DHT22;4012;48.896;9.192;2023-02-21T03:22:35;4.90;99.90
7934;DHT22;4012;48.896;9.192;2023-02-21T03:25:03;5.00;99.90
7934;DHT22;4012;48.896;9.192;2023-02-21T03:27:31;5.00;99.90
7934;DHT22;4012;48.896;9.192;2023-02-21T03:30:02;5.10;99.90
7934;DHT22;4012;48.896;9.192;2023-02-21T03:32:40;5.00;99.90
7934;DHT22;4012;48.896;9.192;2023-02-21T03:35:07;5.00;99.90
7934;DHT22;4012;48.896;9.192;2023-02-21T03:37:39;5.00;99.90
7934;DHT22;4012;48.896;9.192;2023-02-21T03:42:42;4.90;99.90
7934;DHT22;4012;48.896;9.192;2023-02-21T03:45:08;5.00;99.90
7934;DHT22;4012;48.896;9.192;2023-02-21T03:47:34;5.00;99.90
7934;DHT22;4012;48.896;9.192;2023-02-21T03:50:00;5.00;99.90
7934;DHT22;4012;48.896;9.192;2023-02-21T03:52:25;5.10;99.90
7934;DHT22;4012;48.896;9.192;2023-02-21T03:54:51;5.10;99.90
7934;DHT22;4012;48.896;9.192;2023-02-21T03:57:16;5.20;99.90
7934;DHT22;4012;48.896;9.192;2023-02-21T03:59:43;5.10;99.90
7934;DHT22;4012;48.896;9.192;2023-02-21T04:02:09;5.10;99.90
7934;DHT22;4012;48.896;9.192;2023-02-21T04:04:34;5.00;99.90
7934;DHT22;4012;48.896;9.192;2023-02-21T04:07:00;4.90;99.90
7934;DHT22;4012;48.896;9.192;2023-02-21T04:09:26;4.90;99.90
7934;DHT22;4012;48.896;9.192;2023-02-21T04:11:51;4.80;99.90
7934;DHT22;4012;48.896;9.192;2023-02-21T04:14:17;4.80;99.90
7934;DHT22;4012;48.896;9.192;2023-02-21T04:16:43;4.80;99.90
7934;DHT22;4012;48.896;9.192;2023-02-21T04:19:08;4.90;99.90
7934;DHT22;4012;48.896;9.192;2023-02-21T04:21:34;4.90;99.90
7934;DHT22;4012;48.896;9.192;2023-02-21T04:23:59;4.90;99.90
7934;DHT22;4012;48.896;9.192;2023-02-21T04:26:25;5.00;99.90
7934;DHT22;4012;48.896;9.192;2023-02-21T04:28:53;5.00;99.90
7934;DHT22;4012;48.896;9.192;2023-02-21T04:31:19;5.00;99.90
7934;DHT22;4012;48.896;9.192;2023-02-21T04:33:44;5.00;99.90
7934;DHT22;4012;48.896;9.192;2023-02-21T04:36:10;5.00;99.90
7934;DHT22;4012;48.896;9.192;2023-02-21T04:38:36;5.10;99.90
7934;DHT22;4012;48.896;9.192;2023-02-21T04:41:03;5.00;99.90
7934;DHT22;4012;48.896;9.192;2023-02-21T04:43:29;5.10;99.90
7934;DHT22;4012;48.896;9.192;2023-02-21T04:45:54;5.10;99.90
7934;DHT22;4012;48.896;9.192;2023-02-21T04:48:20;5.10;99.90
7934;DHT22;4012;48.896;9.192;2023-02-21T04:50:46;5.10;99.90
7934;DHT22;4012;48.896;9.192;2023-02-21T04:53:12;5.20;99.90
7934;DHT22;4012;48.896;9.192;2023-02-21T04:55:37;5.20;99.90
7934;DHT22;4012;48.896;9.192;2023-02-21T04:58:03;5.20;99.90
7934;DHT22;4012;48.896;9.192;2023-02-21T05:00:29;5.20;99.90
7934;DHT22;4012;48.896;9.192;2023-02-21T05:02:55;5.30;99.90
7934;DHT22;4012;48.896;9.192;2023-02-21T05:05:20;5.30;99.90
7934;DHT22;4012;48.896;9.192;2023-02-21T05:07:46;5.40;99.90
7934;DHT22;4012;48.896;9.192;2023-02-21T05:10:13;5.40;99.90
7934;DHT22;4012;48.896;9.192;2023-02-21T05:12:46;5.40;99.90
7934;DHT22;4012;48.896;9.192;2023-02-21T05:15:12;5.40;99.90
7934;DHT22;4012;48.896;9.192;2023-02-21T05:17:38;5.30;99.90
7934;DHT22;4012;48.896;9.192;2023-02-21T05:20:04;5.30;99.90
7934;DHT22;4012;48.896;9.192;2023-02-21T05:22:32;5.20;99.90
7934;DHT22;4012;48.896;9.192;2023-02-21T05:24:58;5.20;99.90
7934;DHT22;4012;48.896;9.192;2023-02-21T05:27:24;5.20;99.90
7934;DHT22;4012;48.896;9.192;2023-02-21T05:29:51;5.20;99.90
7934;DHT22;4012;48.896;9.192;2023-02-21T05:32:19;5.20;99.90
7934;DHT22;4012;48.896;9.192;2023-02-21T05:34:46;5.20;99.90
7934;DHT22;4012;48.896;9.192;2023-02-21T05:37:18;5.20;99.90
7934;DHT22;4012;48.896;9.192;2023-02-21T05:39:45;5.10;99.90
7934;DHT22;4012;48.896;9.192;2023-02-21T05:42:11;5.10;99.90
7934;DHT22;4012;48.896;9.192;2023-02-21T05:44:37;5.00;99.90
7934;DHT22;4012;48.896;9.192;2023-02-21T05:47:02;5.00;99.90
7934;DHT22;4012;48.896;9.192;2023-02-21T05:49:28;5.00;99.90
7934;DHT22;4012;48.896;9.192;2023-02-21T05:51:54;4.90;99.90
7934;DHT22;4012;48.896;9.192;2023-02-21T05:54:20;4.90;99.90
7934;DHT22;4012;48.896;9.192;2023-02-21T05:56:50;4.90;99.90
7934;DHT22;4012;48.896;9.192;2023-02-21T05:59:18;4.90;99.90
7934;DHT22;4012;48.896;9.192;2023-02-21T06:01:45;4.80;99.90
7934;DHT22;4012;48.896;9.192;2023-02-21T06:04:11;4.80;99.90
7934;DHT22;4012;48.896;9.192;2023-02-21T06:06:37;4.70;99.90
7934;DHT22;4012;48.896;9.192;2023-02-21T06:09:04;4.70;99.90
7934;DHT22;4012;48.896;9.192;2023-02-21T06:11:32;4.70;99.90
7934;DHT22;4012;48.896;9.192;2023-02-21T06:14:00;4.60;99.90
7934;DHT22;4012;48.896;9.192;2023-02-21T06:16:32;4.70;99.90
7934;DHT22;4012;48.896;9.192;2023-02-21T06:18:58;4.70;99.90
7934;DHT22;4012;48.896;9.192;2023-02-21T06:21:24;4.70;99.90
7934;DHT22;4012;48.896;9.192;2023-02-21T06:23:50;4.70;99.90
7934;DHT22;4012;48.896;9.192;2023-02-21T06:26:16;4.60;99.90
7934;DHT22;4012;48.896;9.192;2023-02-21T06:28:42;4.50;99.90
7934;DHT22;4012;48.896;9.192;2023-02-21T06:31:08;4.40;99.90
7934;DHT22;4012;48.896;9.192;2023-02-21T06:33:34;4.10;99.90
7934;DHT22;4012;48.896;9.192;2023-02-21T06:36:07;4.00;99.90
7934;DHT22;4012;48.896;9.192;2023-02-21T06:38:33;3.90;99.90
7934;DHT22;4012;48.896;9.192;2023-02-21T06:41:00;3.80;99.90
7934;DHT22;4012;48.896;9.192;2023-02-21T06:43:29;3.80;99.90
7934;DHT22;4012;48.896;9.192;2023-02-21T06:45:54;3.80;99.90
7934;DHT22;4012;48.896;9.192;2023-02-21T06:48:20;3.90;99.90
7934;DHT22;4012;48.896;9.192;2023-02-21T06:50:46;4.00;99.90
7934;DHT22;4012;48.896;9.192;2023-02-21T06:53:11;4.00;99.90
7934;DHT22;4012;48.896;9.192;2023-02-21T06:55:37;4.20;99.90
7934;DHT22;4012;48.896;9.192;2023-02-21T06:58:02;4.20;99.90
7934;DHT22;4012;48.896;9.192;2023-02-21T07:00:28;4.30;99.90
7934;DHT22;4012;48.896;9.192;2023-02-21T07:02:53;4.50;99.90
7934;DHT22;4012;48.896;9.192;2023-02-21T07:05:19;4.60;99.90
7934;DHT22;4012;48.896;9.192;2023-02-21T07:07:45;4.70;99.90
7934;DHT22;4012;48.896;9.192;2023-02-21T07:10:12;4.80;99.90
7934;DHT22;4012;48.896;9.192;2023-02-21T07:12:38;4.90;99.90
7934;DHT22;4012;48.896;9.192;2023-02-21T07:15:04;4.90;99.90
7934;DHT22;4012;48.896;9.192;2023-02-21T07:17:30;5.00;99.90
7934;DHT22;4012;48.896;9.192;2023-02-21T07:19:56;5.10;99.90
7934;DHT22;4012;48.896;9.192;2023-02-21T07:22:21;5.10;99.90
7934;DHT22;4012;48.896;9.192;2023-02-21T07:24:54;5.20;99.90
7934;DHT22;4012;48.896;9.192;2023-02-21T07:27:21;5.30;99.90
7934;DHT22;4012;48.896;9.192;2023-02-21T07:29:48;5.30;99.90
7934;DHT22;4012;48.896;9.192;2023-02-21T07:32:15;5.30;99.90
7934;DHT22;4012;48.896;9.192;2023-02-21T07:34:41;5.40;99.90
7934;DHT22;4012;48.896;9.192;2023-02-21T07:37:07;5.30;99.90
7934;DHT22;4012;48.896;9.192;2023-02-21T07:39:33;5.40;99.90
7934;DHT22;4012;48.896;9.192;2023-02-21T07:41:59;5.40;99.90
7934;DHT22;4012;48.896;9.192;2023-02-21T07:44:24;5.40;99.90
7934;DHT22;4012;48.896;9.192;2023-02-21T07:46:50;5.50;99.90
7934;DHT22;4012;48.896;9.192;2023-02-21T07:49:16;5.50;99.90
7934;DHT22;4012;48.896;9.192;2023-02-21T07:51:41;5.60;99.90
7934;DHT22;4012;48.896;9.192;2023-02-21T07:54:07;5.70;99.90
7934;DHT22;4012;48.896;9.192;2023-02-21T07:56:32;5.90;99.90
7934;DHT22;4012;48.896;9.192;2023-02-21T07:58:58;5.90;99.90
7934;DHT22;4012;48.896;9.192;2023-02-21T08:01:25;6.00;99.90
7934;DHT22;4012;48.896;9.192;2023-02-21T08:03:51;6.10;99.90
7934;DHT22;4012;48.896;9.192;2023-02-21T08:06:17;6.20;99.90
7934;DHT22;4012;48.896;9.192;2023-02-21T08:08:44;6.30;99.90
7934;DHT22;4012;48.896;9.192;2023-02-21T08:11:09;6.40;99.90
7934;DHT22;4012;48.896;9.192;2023-02-21T08:13:35;6.50;99.90
7934;DHT22;4012;48.896;9.192;2023-02-21T08:16:01;6.70;99.90
7934;DHT22;4012;48.896;9.192;2023-02-21T08:18:27;6.90;99.90
7934;DHT22;4012;48.896;9.192;2023-02-21T08:20:54;7.10;99.90
7934;DHT22;4012;48.896;9.192;2023-02-21T08:23:21;7.20;99.90
7934;DHT22;4012;48.896;9.192;2023-02-21T08:25:47;7.30;99.90
7934;DHT22;4012;48.896;9.192;2023-02-21T08:28:13;7.40;99.90
7934;DHT22;4012;48.896;9.192;2023-02-21T08:30:39;7.50;99.90
7934;DHT22;4012;48.896;9.192;2023-02-21T08:33:05;7.60;99.90
7934;DHT22;4012;48.896;9.192;2023-02-21T08:35:31;7.90;99.90
7934;DHT22;4012;48.896;9.192;2023-02-21T08:37:56;9.90;99.90
7934;DHT22;4012;48.896;9.192;2023-02-21T08:40:28;13.00;99.90
7934;DHT22;4012;48.896;9.192;2023-02-21T08:42:55;15.10;99.90
7934;DHT22;4012;48.896;9.192;2023-02-21T08:45:22;17.70;99.90
7934;DHT22;4012;48.896;9.192;2023-02-21T08:47:48;19.60;99.90
7934;DHT22;4012;48.896;9.192;2023-02-21T08:50:16;20.40;99.90
7934;DHT22;4012;48.896;9.192;2023-02-21T08:52:45;19.50;99.90
7934;DHT22;4012;48.896;9.192;2023-02-21T08:55:10;19.70;99.90
7934;DHT22;4012;48.896;9.192;2023-02-21T08:57:36;20.70;99.90
7934;DHT22;4012;48.896;9.192;2023-02-21T09:00:02;23.00;99.90
7934;DHT22;4012;48.896;9.192;2023-02-21T09:02:30;22.40;99.90
7934;DHT22;4012;48.896;9.192;2023-02-21T09:04:57;21.90;99.90
7934;DHT22;4012;48.896;9.192;2023-02-21T09:07:24;22.00;99.90
7934;DHT22;4012;48.896;9.192;2023-02-21T09:09:50;22.30;99.90
7934;DHT22;4012;48.896;9.192;2023-02-21T09:12:15;22.30;99.90
7934;DHT22;4012;48.896;9.192;2023-02-21T09:14:42;21.50;99.90
7934;DHT22;4012;48.896;9.192;2023-02-21T09:17:10;22.20;99.90
7934;DHT22;4012;48.896;9.192;2023-02-21T09:19:37;22.50;99.90
7934;DHT22;4012;48.896;9.192;2023-02-21T09:22:02;23.20;99.80
7934;DHT22;4012;48.896;9.192;2023-02-21T09:24:28;22.50;99.60
7934;DHT22;4012;48.896;9.192;2023-02-21T09:26:56;23.40;99.00
7934;DHT22;4012;48.896;9.192;2023-02-21T09:29:31;23.50;98.90
7934;DHT22;4012;48.896;9.192;2023-02-21T09:31:58;22.70;98.50
7934;DHT22;4012;48.896;9.192;2023-02-21T09:34:24;22.30;98.00
7934;DHT22;4012;48.896;9.192;2023-02-21T09:36:50;22.00;99.90
7934;DHT22;4012;48.896;9.192;2023-02-21T09:39:17;22.40;99.00
7934;DHT22;4012;48.896;9.192;2023-02-21T09:41:43;23.20;98.30
7934;DHT22;4012;48.896;9.192;2023-02-21T09:44:16;22.90;97.90
7934;DHT22;4012;48.896;9.192;2023-02-21T09:46:45;23.30;97.20
7934;DHT22;4012;48.896;9.192;2023-02-21T09:51:46;23.90;97.10
7934;DHT22;4012;48.896;9.192;2023-02-21T09:56:49;23.50;96.60
7934;DHT22;4012;48.896;9.192;2023-02-21T09:59:15;22.60;96.60
7934;DHT22;4012;48.896;9.192;2023-02-21T10:12:42;23.00;95.30
7934;DHT22;4012;48.896;9.192;2023-02-21T10:18:14;21.60;95.40
7934;DHT22;4012;48.896;9.192;2023-02-21T10:21:01;20.70;96.30
7934;DHT22;4012;48.896;9.192;2023-02-21T10:24:09;20.30;97.20
7934;DHT22;4012;48.896;9.192;2023-02-21T10:26:31;21.10;96.80
7934;DHT22;4012;48.896;9.192;2023-02-21T10:28:59;21.00;96.70
7934;DHT22;4012;48.896;9.192;2023-02-21T10:31:36;20.60;97.60
7934;DHT22;4012;48.896;9.192;2023-02-21T10:34:08;21.20;97.60
7934;DHT22;4012;48.896;9.192;2023-02-21T10:36:39;21.40;96.40
7934;DHT22;4012;48.896;9.192;2023-02-21T10:39:10;20.30;97.40
7934;DHT22;4012;48.896;9.192;2023-02-21T10:41:38;20.30;98.70
7934;DHT22;4012;48.896;9.192;2023-02-21T10:44:22;19.50;99.90
7934;DHT22;4012;48.896;9.192;2023-02-21T10:47:07;19.00;99.90
7934;DHT22;4012;48.896;9.192;2023-02-21T10:49:45;18.20;99.90
7934;DHT22;4012;48.896;9.192;2023-02-21T10:52:15;18.60;99.90
7934;DHT22;4012;48.896;9.192;2023-02-21T10:55:05;18.40;99.90
7934;DHT22;4012;48.896;9.192;2023-02-21T10:57:39;18.00;99.90
7934;DHT22;4012;48.896;9.192;2023-02-21T11:00:06;17.60;99.90
7934;DHT22;4012;48.896;9.192;2023-02-21T11:02:39;17.10;99.90
7934;DHT22;4012;48.896;9.192;2023-02-21T11:05:32;17.70;99.90
7934;DHT22;4012;48.896;9.192;2023-02-21T11:08:02;18.30;99.90
7934;DHT22;4012;48.896;9.192;2023-02-21T11:10:42;17.10;99.90
7934;DHT22;4012;48.896;9.192;2023-02-21T11:13:21;16.50;99.90
7934;DHT22;4012;48.896;9.192;2023-02-21T11:15:47;15.30;99.90
7934;DHT22;4012;48.896;9.192;2023-02-21T11:18:21;14.80;99.90
7934;DHT22;4012;48.896;9.192;2023-02-21T11:20:47;14.60;99.90
7934;DHT22;4012;48.896;9.192;2023-02-21T11:25:47;14.30;99.90
7934;DHT22;4012;48.896;9.192;2023-02-21T11:33:26;13.90;99.90
7934;DHT22;4012;48.896;9.192;2023-02-21T11:36:05;13.90;99.90
7934;DHT22;4012;48.896;9.192;2023-02-21T11:38:36;13.90;99.90
7934;DHT22;4012;48.896;9.192;2023-02-21T11:41:17;13.90;99.90
7934;DHT22;4012;48.896;9.192;2023-02-21T11:43:50;13.80;99.90
7934;DHT22;4012;48.896;9.192;2023-02-21T11:46:39;14.20;99.90
7934;DHT22;4012;48.896;9.192;2023-02-21T11:49:20;14.50;99.90
7934;DHT22;4012;48.896;9.192;2023-02-21T11:52:11;14.80;99.90
7934;DHT22;4012;48.896;9.192;2023-02-21T11:54:38;14.30;99.90
7934;DHT22;4012;48.896;9.192;2023-02-21T12:03:05;14.10;99.90
7934;DHT22;4012;48.896;9.192;2023-02-21T12:05:56;14.10;99.90
7934;DHT22;4012;48.896;9.192;2023-02-21T12:27:46;14.60;99.90
7934;DHT22;4012;48.896;9.192;2023-02-21T12:36:03;14.70;99.90
7934;DHT22;4012;48.896;9.192;2023-02-21T12:47:29;15.20;99.90
7934;DHT22;4012;48.896;9.192;2023-02-21T12:49:52;15.30;99.90
7934;DHT22;4012;48.896;9.192;2023-02-21T12:52:51;15.50;99.90
7934;DHT22;4012;48.896;9.192;2023-02-21T12:55:25;15.60;99.90
7934;DHT22;4012;48.896;9.192;2023-02-21T13:06:33;15.30;99.90
7934;DHT22;4012;48.896;9.192;2023-02-21T13:12:59;15.00;99.90
7934;DHT22;4012;48.896;9.192;2023-02-21T13:15:21;15.10;99.90
7934;DHT22;4012;48.896;9.192;2023-02-21T13:24:33;15.10;99.90
7934;DHT22;4012;48.896;9.192;2023-02-21T13:30:20;15.60;99.90
7934;DHT22;4012;48.896;9.192;2023-02-21T13:32:55;15.50;99.90
7934;DHT22;4012;48.896;9.192;2023-02-21T13:35:48;15.40;99.90
7934;DHT22;4012;48.896;9.192;2023-02-21T13:38:17;15.70;99.90
7934;DHT22;4012;48.896;9.192;2023-02-21T13:40:54;15.70;99.90
7934;DHT22;4012;48.896;9.192;2023-02-21T13:43:29;15.70;99.90
7934;DHT22;4012;48.896;9.192;2023-02-21T13:55:27;15.50;99.90
7934;DHT22;4012;48.896;9.192;2023-02-21T14:08:12;15.40;99.90
7934;DHT22;4012;48.896;9.192;2023-02-21T14:10:53;15.40;99.90
7934;DHT22;4012;48.896;9.192;2023-02-21T14:13:58;15.40;99.90
7934;DHT22;4012;48.896;9.192;2023-02-21T14:16:36;15.40;99.90
7934;DHT22;4012;48.896;9.192;2023-02-21T14:19:16;15.40;99.90
7934;DHT22;4012;48.896;9.192;2023-02-21T14:21:46;15.30;99.90
7934;DHT22;4012;48.896;9.192;2023-02-21T14:24:25;15.30;99.90
7934;DHT22;4012;48.896;9.192;2023-02-21T14:29:38;15.40;99.90
7934;DHT22;4012;48.896;9.192;2023-02-21T14:46:10;15.30;99.90
7934;DHT22;4012;48.896;9.192;2023-02-21T14:48:46;15.30;99.90
7934;DHT22;4012;48.896;9.192;2023-02-21T15:12:51;15.00;99.90
7934;DHT22;4012;48.896;9.192;2023-02-21T15:15:41;15.00;99.90
7934;DHT22;4012;48.896;9.192;2023-02-21T15:18:57;14.90;99.90
7934;DHT22;4012;48.896;9.192;2023-02-21T15:23:44;14.90;99.90
7934;DHT22;4012;48.896;9.192;2023-02-21T15:26:21;14.90;99.90
7934;DHT22;4012;48.896;9.192;2023-02-21T15:29:07;14.80;99.90
7934;DHT22;4012;48.896;9.192;2023-02-21T15:31:35;14.80;99.90
7934;DHT22;4012;48.896;9.192;2023-02-21T15:34:02;14.80;99.90
7934;DHT22;4012;48.896;9.192;2023-02-21T15:36:29;14.80;99.90
7934;DHT22;4012;48.896;9.192;2023-02-21T15:39:20;14.80;99.90
7934;DHT22;4012;48.896;9.192;2023-02-21T15:41:49;14.70;99.90
7934;DHT22;4012;48.896;9.192;2023-02-21T15:44:26;14.70;99.90
7934;DHT22;4012;48.896;9.192;2023-02-21T15:46:57;14.70;99.90
7934;DHT22;4012;48.896;9.192;2023-02-21T15:49:34;14.70;99.90
7934;DHT22;4012;48.896;9.192;2023-02-21T15:52:02;14.60;99.90
7934;DHT22;4012;48.896;9.192;2023-02-21T15:54:34;14.60;99.90
7934;DHT22;4012;48.896;9.192;2023-02-21T15:57:23;14.50;99.90
7934;DHT22;4012;48.896;9.192;2023-02-21T16:00:16;14.50;99.90
7934;DHT22;4012;48.896;9.192;2023-02-21T16:02:41;14.40;99.90
7934;DHT22;4012;48.896;9.192;2023-02-21T16:05:25;14.40;99.90
7934;DHT22;4012;48.896;9.192;2023-02-21T16:07:52;14.30;99.90
7934;DHT22;4012;48.896;9.192;2023-02-21T16:10:22;14.20;99.90
7934;DHT22;4012;48.896;9.192;2023-02-21T16:12:58;14.20;99.90
7934;DHT22;4012;48.896;9.192;2023-02-21T16:15:29;14.10;99.90
7934;DHT22;4012;48.896;9.192;2023-02-21T16:18:01;14.00;99.90
7934;DHT22;4012;48.896;9.192;2023-02-21T16:20:31;14.00;99.90
7934;DHT22;4012;48.896;9.192;2023-02-21T16:28:43;13.90;99.90
7934;DHT22;4012;48.896;9.192;2023-02-21T16:31:30;13.80;99.90
7934;DHT22;4012;48.896;9.192;2023-02-21T16:33:57;13.70;99.90
7934;DHT22;4012;48.896;9.192;2023-02-21T16:36:28;13.70;99.90
7934;DHT22;4012;48.896;9.192;2023-02-21T16:38:56;13.60;99.90
7934;DHT22;4012;48.896;9.192;2023-02-21T16:41:22;13.50;99.90
7934;DHT22;4012;48.896;9.192;2023-02-21T16:43:47;13.40;99.90
7934;DHT22;4012;48.896;9.192;2023-02-21T16:46:14;13.30;99.90
7934;DHT22;4012;48.896;9.192;2023-02-21T16:48:40;13.20;99.90
7934;DHT22;4012;48.896;9.192;2023-02-21T16:51:11;13.00;99.90
7934;DHT22;4012;48.896;9.192;2023-02-21T16:53:38;12.90;99.90
7934;DHT22;4012;48.896;9.192;2023-02-21T16:56:04;12.80;99.90
7934;DHT22;4012;48.896;9.192;2023-02-21T16:58:35;12.80;99.90
7934;DHT22;4012;48.896;9.192;2023-02-21T17:01:14;12.90;99.90
7934;DHT22;4012;48.896;9.192;2023-02-21T17:03:40;12.80;99.90
7934;DHT22;4012;48.896;9.192;2023-02-21T17:06:07;12.70;99.90
7934;DHT22;4012;48.896;9.192;2023-02-21T17:08:38;12.70;99.90
7934;DHT22;4012;48.896;9.192;2023-02-21T17:11:04;12.60;99.90
7934;DHT22;4012;48.896;9.192;2023-02-21T17:13:29;12.60;99.90
7934;DHT22;4012;48.896;9.192;2023-02-21T17:15:55;12.60;99.90
7934;DHT22;4012;48.896;9.192;2023-02-21T17:18:20;12.50;99.90
7934;DHT22;4012;48.896;9.192;2023-02-21T17:20:46;12.50;99.90
7934;DHT22;4012;48.896;9.192;2023-02-21T17:23:12;12.40;99.90
7934;DHT22;4012;48.896;9.192;2023-02-21T17:25:37;12.40;99.90
7934;DHT22;4012;48.896;9.192;2023-02-21T17:28:03;12.30;99.90
7934;DHT22;4012;48.896;9.192;2023-02-21T17:30:29;12.30;99.90
7934;DHT22;4012;48.896;9.192;2023-02-21T17:32:55;12.30;99.90
7934;DHT22;4012;48.896;9.192;2023-02-21T17:35:21;12.30;99.90
7934;DHT22;4012;48.896;9.192;2023-02-21T17:37:49;12.20;99.90
7934;DHT22;4012;48.896;9.192;2023-02-21T17:40:17;12.20;99.90
7934;DHT22;4012;48.896;9.192;2023-02-21T17:42:43;12.20;99.90
7934;DHT22;4012;48.896;9.192;2023-02-21T17:45:09;12.10;99.90
7934;DHT22;4012;48.896;9.192;2023-02-21T17:47:35;12.10;99.90
7934;DHT22;4012;48.896;9.192;2023-02-21T17:50:01;12.00;99.90
7934;DHT22;4012;48.896;9.192;2023-02-21T17:52:28;12.00;99.90
7934;DHT22;4012;48.896;9.192;2023-02-21T17:54:54;12.00;99.90
7934;DHT22;4012;48.896;9.192;2023-02-21T17:57:20;12.10;99.90
7934;DHT22;4012;48.896;9.192;2023-02-21T17:59:46;12.10;99.90
7934;DHT22;4012;48.896;9.192;2023-02-21T18:02:13;12.10;99.90
7934;DHT22;4012;48.896;9.192;2023-02-21T18:04:39;12.10;99.90
7934;DHT22;4012;48.896;9.192;2023-02-21T18:07:05;12.10;99.90
7934;DHT22;4012;48.896;9.192;2023-02-21T18:09:31;12.10;99.90
7934;DHT22;4012;48.896;9.192;2023-02-21T18:11:58;12.10;99.90
7934;DHT22;4012;48.896;9.192;2023-02-21T18:14:25;12.00;99.90
7934;DHT22;4012;48.896;9.192;2023-02-21T18:16:51;12.00;99.90
7934;DHT22;4012;48.896;9.192;2023-02-21T18:19:21;11.90;99.90
7934;DHT22;4012;48.896;9.192;2023-02-21T18:21:47;11.80;99.90
7934;DHT22;4012;48.896;9.192;2023-02-21T18:24:13;11.70;99.90
7934;DHT22;4012;48.896;9.192;2023-02-21T18:26:40;11.80;99.90
7934;DHT22;4012;48.896;9.192;2023-02-21T18:29:06;11.80;99.90
7934;DHT22;4012;48.896;9.192;2023-02-21T18:31:32;11.70;99.90
7934;DHT22;4012;48.896;9.192;2023-02-21T18:34:02;11.70;99.90
7934;DHT22;4012;48.896;9.192;2023-02-21T18:36:27;11.80;99.90
7934;DHT22;4012;48.896;9.192;2023-02-21T18:38:53;11.70;99.90
7934;DHT22;4012;48.896;9.192;2023-02-21T18:41:20;11.70;99.90
7934;DHT22;4012;48.896;9.192;2023-02-21T18:43:47;11.70;99.90
7934;DHT22;4012;48.896;9.192;2023-02-21T18:46:15;11.60;99.90
7934;DHT22;4012;48.896;9.192;2023-02-21T18:48:43;11.60;99.90
7934;DHT22;4012;48.896;9.192;2023-02-21T18:51:10;11.50;99.90
7934;DHT22;4012;48.896;9.192;2023-02-21T18:53:36;11.50;99.90
7934;DHT22;4012;48.896;9.192;2023-02-21T18:56:02;11.30;99.90
7934;DHT22;4012;48.896;9.192;2023-02-21T18:58:31;11.30;99.90
7934;DHT22;4012;48.896;9.192;2023-02-21T19:00:57;11.20;99.90
7934;DHT22;4012;48.896;9.192;2023-02-21T19:03:22;11.10;99.90
7934;DHT22;4012;48.896;9.192;2023-02-21T19:05:48;11.10;99.90
7934;DHT22;4012;48.896;9.192;2023-02-21T19:08:17;11.00;99.90
7934;DHT22;4012;48.896;9.192;2023-02-21T19:10:46;11.00;99.90
7934;DHT22;4012;48.896;9.192;2023-02-21T19:13:14;10.90;99.90
7934;DHT22;4012;48.896;9.192;2023-02-21T19:15:39;10.90;99.90
7934;DHT22;4012;48.896;9.192;2023-02-21T19:18:05;10.90;99.90
7934;DHT22;4012;48.896;9.192;2023-02-21T19:20:33;10.90;99.90
7934;DHT22;4012;48.896;9.192;2023-02-21T19:22:58;10.80;99.90
7934;DHT22;4012;48.896;9.192;2023-02-21T19:25:27;10.80;99.90
7934;DHT22;4012;48.896;9.192;2023-02-21T19:27:54;10.70;99.90
7934;DHT22;4012;48.896;9.192;2023-02-21T19:30:25;10.70;99.90
7934;DHT22;4012;48.896;9.192;2023-02-21T19:32:51;10.60;99.90
7934;DHT22;4012;48.896;9.192;2023-02-21T19:35:17;10.60;99.90
7934;DHT22;4012;48.896;9.192;2023-02-21T19:37:43;10.50;99.90
7934;DHT22;4012;48.896;9.192;2023-02-21T19:40:08;10.50;99.90
7934;DHT22;4012;48.896;9.192;2023-02-21T19:42:34;10.50;99.90
7934;DHT22;4012;48.896;9.192;2023-02-21T19:45:00;10.50;99.90
7934;DHT22;4012;48.896;9.192;2023-02-21T19:47:25;10.50;99.90
7934;DHT22;4012;48.896;9.192;2023-02-21T19:49:52;10.40;99.90